createdAt,value
2023-03-26T00:02:29.850Z,97952.97
2023-03-26T00:04:59.543Z,97948.45
2023-03-26T00:07:28.801Z,97948.29
2023-03-26T00:09:59.240Z,97947.27
2023-03-26T00:12:31.403Z,97944.94
2023-03-26T00:15:03.382Z,97941.34
2023-03-26T00:17:32.135Z,97941.11
2023-03-26T00:20:02.381Z,97932.25
2023-03-26T00:22:31.024Z,97932.66
2023-03-26T00:24:59.526Z,97935.08
2023-03-26T00:27:30.317Z,97939.10
2023-03-26T00:30:00.262Z,97938.23
2023-03-26T00:32:34.722Z,97938.04
2023-03-26T00:35:04.085Z,97935.38
2023-03-26T00:37:34.068Z,97934.56
2023-03-26T00:40:08.331Z,97935.79
2023-03-26T00:42:40.138Z,97935.42
2023-03-26T00:45:09.738Z,97942.00
2023-03-26T00:47:40.434Z,97939.66
2023-03-26T00:50:15.655Z,97937.95
2023-03-26T00:52:45.237Z,97942.62
2023-03-26T00:55:16.252Z,97943.38
2023-03-26T00:57:46.660Z,97940.58
2023-03-26T01:00:15.647Z,97936.14
2023-03-26T01:02:47.318Z,97939.29
2023-03-26T01:05:35.378Z,97940.20
2023-03-26T01:08:29.333Z,97939.42
2023-03-26T01:11:07.775Z,97936.70
2023-03-26T01:13:38.313Z,97935.14
2023-03-26T01:16:10.066Z,97933.14
2023-03-26T01:18:41.268Z,97935.56
2023-03-26T01:21:14.021Z,97939.36
2023-03-26T01:23:47.083Z,97934.68
2023-03-26T01:26:46.269Z,97939.25
2023-03-26T01:29:43.810Z,97940.64
2023-03-26T01:32:55.815Z,97940.41
2023-03-26T01:35:46.247Z,97938.16
2023-03-26T01:38:46.964Z,97936.91
2023-03-26T01:41:27.724Z,97942.11
2023-03-26T01:44:15.244Z,97937.09
2023-03-26T01:46:43.725Z,97940.73
2023-03-26T01:49:13.756Z,97939.36
2023-03-26T01:51:42.642Z,97939.13
2023-03-26T01:54:19.656Z,97938.27
2023-03-26T01:57:13.442Z,97940.77
2023-03-26T02:00:11.863Z,97946.67
2023-03-26T02:03:06.099Z,97947.04
2023-03-26T02:05:38.039Z,97949.25
2023-03-26T02:08:35.773Z,97955.73
2023-03-26T02:11:11.916Z,97957.30
2023-03-26T02:13:43.164Z,97959.51
2023-03-26T02:16:16.776Z,97959.14
2023-03-26T02:18:51.582Z,97972.30
2023-03-26T02:21:21.568Z,97977.21
2023-03-26T02:23:50.976Z,97978.42
2023-03-26T02:26:19.745Z,97986.73
2023-03-26T02:28:56.957Z,97986.22
2023-03-26T02:31:31.011Z,97988.99
2023-03-26T02:33:59.449Z,97998.61
2023-03-26T02:36:29.957Z,98001.80
2023-03-26T02:39:01.020Z,98011.46
2023-03-26T02:41:31.869Z,98015.60
2023-03-26T02:44:09.503Z,98017.52
2023-03-26T02:46:57.136Z,98015.16
2023-03-26T02:49:52.726Z,98020.64
2023-03-26T02:52:26.066Z,98021.36
2023-03-26T02:54:56.440Z,98025.20
2023-03-26T02:57:26.603Z,98030.05
2023-03-26T03:00:17.602Z,98027.56
2023-03-26T03:02:50.476Z,98033.89
2023-03-26T03:05:55.176Z,98043.88
2023-03-26T03:08:41.771Z,98052.69
2023-03-26T03:11:13.036Z,98053.89
2023-03-26T03:13:51.196Z,98060.96
2023-03-26T03:16:24.929Z,98064.29
2023-03-26T03:18:57.807Z,98070.86
2023-03-26T03:21:31.040Z,98073.65
2023-03-26T03:24:00.301Z,98078.20
2023-03-26T03:26:30.784Z,98087.96
2023-03-26T03:29:03.563Z,98094.40
2023-03-26T03:31:32.649Z,98102.65
2023-03-26T03:34:04.416Z,98109.69
2023-03-26T03:36:38.716Z,98106.95
2023-03-26T03:39:19.773Z,98116.14
2023-03-26T03:41:50.493Z,98116.15
2023-03-26T03:44:19.330Z,98114.73
2023-03-26T03:46:49.480Z,98115.27
2023-03-26T03:49:19.961Z,98114.10
2023-03-26T03:51:48.574Z,98120.84
2023-03-26T03:54:30.996Z,98128.83
2023-03-26T03:57:36.589Z,98128.38
2023-03-26T04:00:12.020Z,98129.65
2023-03-26T04:02:50.389Z,98128.20
2023-03-26T04:05:19.114Z,98127.64
2023-03-26T04:07:50.847Z,98127.99
2023-03-26T04:10:28.397Z,98135.11
2023-03-26T04:13:24.094Z,98144.77
2023-03-26T04:16:15.173Z,98148.57
2023-03-26T04:18:45.480Z,98150.36
2023-03-26T04:21:17.137Z,98154.76
2023-03-26T04:23:45.912Z,98158.18
2023-03-26T04:26:31.135Z,98160.04
2023-03-26T04:29:06.517Z,98166.56
2023-03-26T04:31:40.119Z,98169.67
2023-03-26T04:34:14.401Z,98167.89
2023-03-26T04:36:54.733Z,98172.05
2023-03-26T04:39:29.381Z,98172.11
2023-03-26T04:42:21.320Z,98174.80
2023-03-26T04:45:05.962Z,98180.48
2023-03-26T04:47:37.270Z,98170.31
2023-03-26T04:50:08.348Z,98170.65
2023-03-26T04:52:37.810Z,98170.77
2023-03-26T04:55:30.252Z,98176.03
2023-03-26T04:58:05.659Z,98175.83
2023-03-26T05:00:50.348Z,98177.96
2023-03-26T05:03:21.305Z,98184.70
2023-03-26T05:05:50.402Z,98188.88
2023-03-26T05:08:18.800Z,98194.36
2023-03-26T05:10:48.036Z,98200.85
2023-03-26T05:13:24.793Z,98206.92
2023-03-26T05:15:55.910Z,98203.24
2023-03-26T05:18:35.924Z,98214.13
2023-03-26T05:21:05.034Z,98212.00
2023-03-26T05:23:41.304Z,98214.06
2023-03-26T05:26:18.419Z,98218.19
2023-03-26T05:28:47.012Z,98220.60
2023-03-26T05:31:24.700Z,98229.63
2023-03-26T05:33:55.467Z,98227.27
2023-03-26T05:36:28.675Z,98224.73
2023-03-26T05:39:11.632Z,98222.99
2023-03-26T05:42:08.049Z,98220.38
2023-03-26T05:44:59.871Z,98224.48
2023-03-26T05:47:29.700Z,98231.83
2023-03-26T05:49:58.299Z,98236.63
2023-03-26T05:52:28.019Z,98237.56
2023-03-26T05:55:18.771Z,98239.70
2023-03-26T05:58:06.922Z,98240.34
2023-03-26T06:01:06.018Z,98236.88
2023-03-26T06:03:47.367Z,98233.25
2023-03-26T06:06:20.816Z,98235.95
2023-03-26T06:09:02.030Z,98234.83
2023-03-26T06:11:32.239Z,98240.20
2023-03-26T06:14:09.115Z,98241.77
2023-03-26T06:16:40.770Z,98237.58
2023-03-26T06:19:29.869Z,98236.09
2023-03-26T06:22:10.939Z,98234.41
2023-03-26T06:24:59.824Z,98231.84
2023-03-26T06:27:49.663Z,98235.47
2023-03-26T06:30:59.582Z,98235.23
2023-03-26T06:33:38.432Z,98239.23
2023-03-26T06:36:07.579Z,98232.67
2023-03-26T06:38:37.286Z,98234.73
2023-03-26T06:41:08.470Z,98237.03
2023-03-26T06:44:16.424Z,98239.17
2023-03-26T06:47:20.642Z,98243.69
2023-03-26T06:52:56.030Z,98244.77
2023-03-26T06:55:43.185Z,98233.99
2023-03-26T06:58:38.219Z,98232.82
2023-03-26T07:01:25.513Z,98238.86
2023-03-26T07:04:13.425Z,98241.48
2023-03-26T07:07:21.890Z,98241.60
2023-03-26T07:10:10.356Z,98240.86
2023-03-26T07:13:00.460Z,98243.77
2023-03-26T07:15:55.668Z,98242.11
2023-03-26T07:18:35.041Z,98245.13
2023-03-26T07:21:05.877Z,98240.45
2023-03-26T07:23:36.590Z,98239.05
2023-03-26T07:26:37.128Z,98240.27
2023-03-26T07:29:42.218Z,98247.07
2023-03-26T07:32:43.733Z,98251.73
2023-03-26T07:35:47.014Z,98252.16
2023-03-26T07:38:53.066Z,98259.00
2023-03-26T07:42:14.867Z,98262.82
2023-03-26T07:45:34.071Z,98265.38
2023-03-26T07:48:28.561Z,98267.84
2023-03-26T07:51:18.936Z,98267.94
2023-03-26T07:54:04.319Z,98267.05
2023-03-26T07:56:59.148Z,98271.98
2023-03-26T07:59:55.084Z,98272.06
2023-03-26T08:03:22.337Z,98271.73
2023-03-26T08:06:17.851Z,98276.55
2023-03-26T08:09:17.867Z,98276.78
2023-03-26T08:12:02.170Z,98276.09
2023-03-26T08:14:34.026Z,98278.13
2023-03-26T08:17:38.968Z,98276.66
2023-03-26T08:20:36.901Z,98271.83
2023-03-26T08:23:28.162Z,98271.36
2023-03-26T08:26:06.329Z,98265.04
2023-03-26T08:29:11.923Z,98258.52
2023-03-26T08:31:42.020Z,98256.88
2023-03-26T08:34:11.734Z,98256.16
2023-03-26T08:36:40.496Z,98259.27
2023-03-26T08:39:09.366Z,98258.98
2023-03-26T08:42:05.451Z,98261.27
2023-03-26T08:44:34.569Z,98257.80
2023-03-26T08:47:19.742Z,98255.60
2023-03-26T08:50:19.430Z,98253.48
2023-03-26T08:53:22.255Z,98255.27
2023-03-26T08:55:57.911Z,98250.08
2023-03-26T08:58:50.910Z,98252.77
2023-03-26T09:01:25.954Z,98256.46
2023-03-26T09:04:19.898Z,98256.66
2023-03-26T09:07:22.046Z,98255.16
2023-03-26T09:10:29.840Z,98256.31
2023-03-26T09:13:41.304Z,98254.98
2023-03-26T09:16:31.848Z,98253.61
2023-03-26T09:19:14.362Z,98236.45
2023-03-26T09:21:58.561Z,98244.98
2023-03-26T09:24:34.841Z,98244.87
2023-03-26T09:27:34.574Z,98249.42
2023-03-26T09:30:29.706Z,98246.48
2023-03-26T09:33:28.216Z,98246.84
2023-03-26T09:36:19.993Z,98241.46
2023-03-26T09:39:19.722Z,98246.02
2023-03-26T09:41:59.111Z,98246.98
2023-03-26T09:45:01.606Z,98245.77
2023-03-26T09:47:46.147Z,98245.61
2023-03-26T09:50:27.622Z,98254.99
2023-03-26T09:53:18.628Z,98254.62
2023-03-26T09:56:09.040Z,98253.67
2023-03-26T09:58:47.158Z,98247.19
2023-03-26T10:01:18.570Z,98241.70
2023-03-26T10:04:21.058Z,98241.77
2023-03-26T10:06:58.190Z,98238.98
2023-03-26T10:09:41.151Z,98242.17
2023-03-26T10:12:16.667Z,98247.59
2023-03-26T10:14:49.348Z,98255.05
2023-03-26T10:18:28.226Z,98251.19
2023-03-26T10:21:02.169Z,98254.94
2023-03-26T10:23:51.759Z,98251.34
2023-03-26T10:26:39.108Z,98248.31
2023-03-26T10:29:23.580Z,98247.43
2023-03-26T10:32:16.333Z,98250.03
2023-03-26T10:34:57.064Z,98249.71
2023-03-26T10:37:35.985Z,98252.96
2023-03-26T10:40:28.351Z,98254.59
2023-03-26T10:43:19.926Z,98253.48
2023-03-26T10:46:01.921Z,98253.65
2023-03-26T10:48:54.900Z,98249.08
2023-03-26T10:51:51.593Z,98250.42
2023-03-26T10:54:47.401Z,98256.69
2023-03-26T10:57:56.350Z,98254.34
2023-03-26T11:00:29.425Z,98252.79
2023-03-26T11:03:36.272Z,98256.09
2023-03-26T11:06:17.221Z,98251.44
2023-03-26T11:09:27.349Z,98250.15
2023-03-26T11:12:26.584Z,98246.42
2023-03-26T11:15:18.458Z,98241.52
2023-03-26T11:18:11.294Z,98241.73
2023-03-26T11:20:51.398Z,98239.46
2023-03-26T11:23:32.042Z,98238.02
2023-03-26T11:26:03.852Z,98234.45
2023-03-26T11:29:03.547Z,98231.35
2023-03-26T11:31:50.550Z,98227.83
2023-03-26T11:34:19.542Z,98226.71
2023-03-26T11:36:55.224Z,98226.73
2023-03-26T11:39:26.086Z,98230.36
2023-03-26T11:42:07.752Z,98230.27
2023-03-26T11:45:06.109Z,98227.45
2023-03-26T11:47:44.730Z,98230.62
2023-03-26T11:50:36.478Z,98229.70
2023-03-26T11:53:13.129Z,98233.72
2023-03-26T11:55:44.860Z,98233.94
2023-03-26T11:58:28.060Z,98226.64
2023-03-26T12:00:57.024Z,98222.92
2023-03-26T12:03:30.466Z,98219.00
2023-03-26T12:06:00.215Z,98219.05
2023-03-26T12:08:34.925Z,98217.77
2023-03-26T12:11:09.099Z,98215.73
2023-03-26T12:13:39.406Z,98210.04
2023-03-26T12:16:16.847Z,98206.30
2023-03-26T12:18:46.774Z,98204.18
2023-03-26T12:21:18.317Z,98205.19
2023-03-26T12:24:00.627Z,98205.45
2023-03-26T12:26:45.170Z,98200.77
2023-03-26T12:29:15.550Z,98201.61
2023-03-26T12:31:49.863Z,98202.27
2023-03-26T12:34:23.245Z,98201.62
2023-03-26T12:36:53.696Z,98202.95
2023-03-26T12:40:09.321Z,98200.86
2023-03-26T12:44:46.779Z,98200.15
2023-03-26T12:45:23.837Z,98201.08
2023-03-26T12:47:58.926Z,98191.91
2023-03-26T12:50:40.910Z,98189.80
2023-03-26T12:53:27.790Z,98189.73
2023-03-26T12:56:01.812Z,98191.48
2023-03-26T12:58:38.401Z,98201.06
2023-03-26T13:01:16.958Z,98198.48
2023-03-26T13:04:14.847Z,98200.63
2023-03-26T13:07:01.989Z,98195.30
2023-03-26T13:10:11.461Z,98195.21
2023-03-26T13:12:51.655Z,98193.41
2023-03-26T13:15:25.281Z,98198.41
2023-03-26T13:17:54.410Z,98199.14
2023-03-26T13:20:47.283Z,98197.43
2023-03-26T13:23:26.955Z,98197.85
2023-03-26T13:26:15.279Z,98195.36
2023-03-26T13:29:02.770Z,98196.20
2023-03-26T13:31:36.438Z,98196.28
2023-03-26T13:34:23.520Z,98192.42
2023-03-26T13:37:23.581Z,98189.80
2023-03-26T13:40:02.307Z,98188.41
2023-03-26T13:42:42.057Z,98192.71
2023-03-26T13:45:43.565Z,98193.86
2023-03-26T13:48:18.600Z,98190.15
2023-03-26T13:51:10.023Z,98189.64
2023-03-26T13:54:06.134Z,98193.30
2023-03-26T13:56:38.312Z,98189.40
2023-03-26T13:59:13.007Z,98187.83
2023-03-26T14:01:51.149Z,98181.45
2023-03-26T14:04:32.490Z,98180.40
2023-03-26T14:07:05.186Z,98177.77
2023-03-26T14:09:41.093Z,98176.79
2023-03-26T14:12:30.896Z,98182.09
2023-03-26T14:15:02.449Z,98178.42
2023-03-26T14:17:51.500Z,98182.48
2023-03-26T14:20:35.058Z,98179.94
2023-03-26T14:23:06.428Z,98179.93
2023-03-26T14:26:09.730Z,98184.19
2023-03-26T14:29:01.895Z,98189.46
2023-03-26T14:31:39.762Z,98200.11
2023-03-26T14:34:33.350Z,98193.75
2023-03-26T14:37:10.772Z,98194.48
2023-03-26T14:39:49.411Z,98193.27
2023-03-26T14:42:22.032Z,98194.69
2023-03-26T14:45:15.590Z,98191.67
2023-03-26T14:48:21.904Z,98191.42
2023-03-26T14:50:54.831Z,98190.00
2023-03-26T14:53:40.523Z,98187.09
2023-03-26T14:56:35.802Z,98187.47
2023-03-26T14:59:41.893Z,98183.05
2023-03-26T15:02:23.260Z,98184.99
2023-03-26T15:04:54.816Z,98184.54
2023-03-26T15:07:35.395Z,98179.23
2023-03-26T15:10:17.051Z,98179.96
2023-03-26T15:12:59.091Z,98180.16
2023-03-26T15:15:33.725Z,98179.56
2023-03-26T15:18:14.359Z,98176.09
2023-03-26T15:21:04.941Z,98173.83
2023-03-26T15:24:07.879Z,98175.38
2023-03-26T15:27:14.786Z,98177.49
2023-03-26T15:30:07.074Z,98173.35
2023-03-26T15:33:05.478Z,98174.16
2023-03-26T15:35:42.350Z,98175.64
2023-03-26T15:38:53.014Z,98173.29
2023-03-26T15:41:44.768Z,98178.21
2023-03-26T15:44:29.228Z,98181.83
2023-03-26T15:47:16.862Z,98186.56
2023-03-26T15:49:52.960Z,98184.92
2023-03-26T15:52:26.499Z,98187.40
2023-03-26T15:55:11.272Z,98190.52
2023-03-26T15:57:44.137Z,98193.84
2023-03-26T16:00:15.601Z,98197.20
2023-03-26T16:02:53.957Z,98199.48
2023-03-26T16:05:50.326Z,98202.23
2023-03-26T16:08:47.289Z,98207.47
2023-03-26T16:11:16.685Z,98214.02
2023-03-26T16:13:54.987Z,98217.42
2023-03-26T16:16:28.389Z,98223.38
2023-03-26T16:18:59.629Z,98223.32
2023-03-26T16:21:32.792Z,98224.17
2023-03-26T16:24:08.329Z,98228.17
2023-03-26T16:26:48.908Z,98224.72
2023-03-26T16:29:19.473Z,98230.52
2023-03-26T16:32:10.084Z,98230.55
2023-03-26T16:35:02.259Z,98231.73
2023-03-26T16:37:37.849Z,98239.02
2023-03-26T16:40:18.861Z,98242.83
2023-03-26T16:43:39.262Z,98244.51
2023-03-26T16:46:16.822Z,98250.42
2023-03-26T16:49:24.052Z,98257.20
2023-03-26T16:51:55.609Z,98264.04
2023-03-26T16:54:24.275Z,98269.59
2023-03-26T16:57:12.608Z,98270.94
2023-03-26T17:00:13.870Z,98277.40
2023-03-26T17:03:14.560Z,98286.92
2023-03-26T17:05:46.151Z,98289.23
2023-03-26T17:08:36.962Z,98291.78
2023-03-26T17:11:21.133Z,98287.66
2023-03-26T17:14:35.867Z,98291.91
2023-03-26T17:17:27.380Z,98288.41
2023-03-26T17:20:20.381Z,98283.44
2023-03-26T17:22:56.495Z,98289.23
2023-03-26T17:25:58.171Z,98285.95
2023-03-26T17:28:55.946Z,98283.29
2023-03-26T17:31:36.488Z,98286.26
2023-03-26T17:34:39.244Z,98286.56
2023-03-26T17:37:19.148Z,98287.86
2023-03-26T17:40:14.056Z,98289.34
2023-03-26T17:43:01.922Z,98290.77
2023-03-26T17:45:33.663Z,98290.33
2023-03-26T17:48:06.041Z,98287.48
2023-03-26T17:50:58.372Z,98287.05
2023-03-26T17:53:31.794Z,98289.95
2023-03-26T17:56:03.916Z,98296.34
2023-03-26T17:58:37.826Z,98292.61
2023-03-26T18:01:12.477Z,98298.55
2023-03-26T18:03:44.805Z,98295.87
2023-03-26T18:06:14.740Z,98296.06
2023-03-26T18:08:55.894Z,98286.92
2023-03-26T18:11:50.992Z,98300.66
2023-03-26T18:14:27.934Z,98302.34
2023-03-26T18:16:57.802Z,98303.60
2023-03-26T18:19:27.161Z,98300.79
2023-03-26T18:21:59.809Z,98299.88
2023-03-26T18:24:33.368Z,98302.14
2023-03-26T18:27:03.246Z,98302.14
2023-03-26T18:29:33.222Z,98299.31
2023-03-26T18:32:09.579Z,98303.97
2023-03-26T18:34:39.966Z,98307.98
2023-03-26T18:37:11.502Z,98309.08
2023-03-26T18:39:41.170Z,98310.60
2023-03-26T18:42:22.953Z,98305.98
2023-03-26T18:44:53.254Z,98308.56
2023-03-26T18:47:22.144Z,98307.34
2023-03-26T18:49:52.372Z,98307.17
2023-03-26T18:52:21.570Z,98314.33
2023-03-26T18:54:52.118Z,98310.92
2023-03-26T18:57:23.030Z,98308.20
2023-03-26T18:59:56.289Z,98303.98
2023-03-26T19:02:24.828Z,98311.17
2023-03-26T19:04:54.538Z,98309.84
2023-03-26T19:09:28.194Z,98315.44
2023-03-26T19:12:18.624Z,98311.67
2023-03-26T19:14:55.357Z,98311.31
2023-03-26T19:17:25.494Z,98312.30
2023-03-26T19:19:54.993Z,98309.64
2023-03-26T19:22:25.940Z,98313.45
2023-03-26T19:24:57.873Z,98308.47
2023-03-26T19:27:26.169Z,98309.23
2023-03-26T19:29:57.759Z,98308.80
2023-03-26T19:32:34.755Z,98305.65
2023-03-26T19:35:04.675Z,98308.77
2023-03-26T19:37:33.936Z,98311.84
2023-03-26T19:40:22.796Z,98312.34
2023-03-26T19:42:52.301Z,98310.63
2023-03-26T19:45:23.186Z,98303.90
2023-03-26T19:48:00.423Z,98299.72
2023-03-26T19:50:33.703Z,98300.57
2023-03-26T19:53:22.263Z,98301.79
2023-03-26T19:55:55.801Z,98303.80
2023-03-26T19:58:26.559Z,98300.79
2023-03-26T20:00:56.515Z,98300.08
2023-03-26T20:03:43.078Z,98293.45
2023-03-26T20:06:12.554Z,98286.00
2023-03-26T20:08:47.289Z,98289.81
2023-03-26T20:11:39.332Z,98290.31
2023-03-26T20:14:21.688Z,98292.77
2023-03-26T20:16:50.609Z,98295.70
2023-03-26T20:19:19.396Z,98294.88
2023-03-26T20:21:55.926Z,98291.71
2023-03-26T20:24:32.432Z,98297.86
2023-03-26T20:27:00.800Z,98302.72
2023-03-26T20:29:29.649Z,98308.42
2023-03-26T20:31:58.025Z,98305.49
2023-03-26T20:34:26.419Z,98304.04
2023-03-26T20:36:56.139Z,98302.73
2023-03-26T20:39:25.427Z,98304.84
2023-03-26T20:41:55.013Z,98305.66
2023-03-26T20:44:23.847Z,98306.06
2023-03-26T20:46:52.689Z,98305.06
2023-03-26T20:49:22.392Z,98307.30
2023-03-26T20:51:50.965Z,98303.05
2023-03-26T20:54:21.828Z,98301.38
2023-03-26T20:56:51.196Z,98302.79
2023-03-26T20:59:22.336Z,98303.58
2023-03-26T21:01:51.513Z,98302.49
2023-03-26T21:04:20.090Z,98301.15
2023-03-26T21:06:48.894Z,98298.95
2023-03-26T21:09:19.157Z,98298.23
2023-03-26T21:12:08.382Z,98295.38
2023-03-26T21:14:43.643Z,98297.98
2023-03-26T21:17:16.284Z,98301.63
2023-03-26T21:19:45.990Z,98302.17
2023-03-26T21:22:46.471Z,98305.43
2023-03-26T21:25:32.255Z,98308.34
2023-03-26T21:28:41.905Z,98310.92
2023-03-26T21:31:19.777Z,98311.85
2023-03-26T21:33:49.519Z,98310.98
2023-03-26T21:36:18.691Z,98309.27
2023-03-26T21:38:47.573Z,98312.17
2023-03-26T21:41:41.454Z,98310.79
2023-03-26T21:44:10.236Z,98309.29
2023-03-26T21:46:41.708Z,98308.20
2023-03-26T21:49:10.592Z,98309.67
2023-03-26T21:51:39.178Z,98308.42
2023-03-26T21:54:21.604Z,98307.00
2023-03-26T21:57:39.268Z,98304.30
2023-03-26T22:00:15.710Z,98304.40
2023-03-26T22:02:47.030Z,98306.46
2023-03-26T22:05:17.730Z,98306.47
2023-03-26T22:08:00.204Z,98306.14
2023-03-26T22:10:29.621Z,98309.16
2023-03-26T22:13:01.556Z,98310.83
2023-03-26T22:15:30.943Z,98312.38
2023-03-26T22:18:01.205Z,98308.52
2023-03-26T22:20:34.287Z,98308.80
2023-03-26T22:23:03.425Z,98305.46
2023-03-26T22:25:33.078Z,98309.60
2023-03-26T22:28:04.499Z,98311.39
2023-03-26T22:30:33.408Z,98312.73
2023-03-26T22:33:01.920Z,98310.42
2023-03-26T22:35:30.446Z,98308.02
2023-03-26T22:38:00.885Z,98307.54
2023-03-26T22:40:29.875Z,98306.70
2023-03-26T22:42:58.513Z,98302.44
2023-03-26T22:45:30.258Z,98304.30
2023-03-26T22:48:03.439Z,98303.34
2023-03-26T22:50:33.076Z,98300.02
2023-03-26T22:53:02.616Z,98295.73
2023-03-26T22:55:32.526Z,98291.42
2023-03-26T22:58:07.105Z,98288.45
2023-03-26T23:00:40.149Z,98287.75
2023-03-26T23:03:09.086Z,98285.80
2023-03-26T23:05:38.214Z,98288.42
2023-03-26T23:08:08.043Z,98290.49
2023-03-26T23:10:37.024Z,98283.91
2023-03-26T23:13:05.880Z,98284.34
2023-03-26T23:15:35.192Z,98284.98
2023-03-26T23:18:03.698Z,98286.15
2023-03-26T23:20:39.412Z,98284.95
2023-03-26T23:23:07.890Z,98286.20
2023-03-26T23:25:40.938Z,98284.55
2023-03-26T23:28:10.436Z,98285.66
2023-03-26T23:30:38.970Z,98287.01
2023-03-26T23:33:09.190Z,98288.17
2023-03-26T23:35:37.874Z,98289.27
2023-03-26T23:38:08.418Z,98292.67
2023-03-26T23:40:37.675Z,98291.65
2023-03-26T23:43:07.071Z,98292.67
2023-03-26T23:45:35.606Z,98286.64
2023-03-26T23:48:05.153Z,98280.34
2023-03-26T23:50:40.092Z,98283.93
2023-03-26T23:53:08.682Z,98280.45
2023-03-26T23:55:38.148Z,98281.79
2023-03-26T23:58:07.114Z,98284.33
